• Join FlightAware (Why Join?)
  • Login
  • US Flag 
03:44PM EDT


 

Airport Tracker/Info


-or-


 

Live Flight TrackerFlight Track Log ✈ CPZ5714 ✈ 12-Aug-2013 ✈ KMSP - KALB

Flight Track Log - Related Links

Times and Time Zones

All times are in EDT time to prevent confusion due to time zone crossing. See the CPZ5714 flight status page for this flight to view local times or setup timezone preferences in your user account.

Time Position Orientation Groundspeed Altitude Reporting Facility
EDT Latitude Longitude Course Direction KTS MPH feet Rate Location/Type
08:49PM 44.9167 -93.2500 92° East 161 185 2,700  Level Minneapolis TRACON
08:50PM 44.9428 -93.2569 349° North 183 211 3,200 1,860 Climbing Minneapolis Center
08:51PM 45.0019 -93.2406 11° North 235 270 5,600 2,520 Climbing Minneapolis Center
08:52PM 45.0628 -93.1781 36° Northeast 267 307 8,500 1,740 Climbing Minneapolis Center
08:53PM 45.1242 -93.1106 38° Northeast 278 320 9,200 1,620 Climbing Minneapolis Center
08:54PM 45.1625 -92.9714 69° East 317 365 11,900 2,280 Climbing Minneapolis Center
08:55PM 44.8538 -92.1800 92° East  Level Estimated
08:55PM 45.2003 -92.8419 67° East 350 403 14,000  Level Minneapolis Center
08:56PM 45.2372 -92.7025 69° East 375 432 16,200 1,980 Climbing Minneapolis Center
08:57PM 45.2669 -92.5542 74° East 389 448 18,200 1,860 Climbing Minneapolis Center
08:58PM 45.2797 -92.3939 83° East 402 463 20,100 1,740 Climbing Minneapolis Center
08:59PM 45.2686 -92.2228 95° East 426 490 21,800 1,740 Climbing Minneapolis Center
09:00PM 45.2583 -92.0125 94° East 442 509 23,800 1,380 Climbing Minneapolis Center
09:02PM 45.2381 -91.6483 90° East 467 537 26,300 1,080 Climbing Minneapolis Center
09:03PM 45.2500 -91.5723 90° East  Level FlightAware Approximate
09:04PM 45.2156 -91.2375 94° East 483 556 28,500  Level Minneapolis Center
09:05PM 45.2039 -91.0417 95° East 492 566 29,400 840 Climbing Minneapolis Center
09:06PM 45.1944 -90.8853 95° East 497 572 30,300 960 Climbing Minneapolis Center
09:07PM 45.1794 -90.6506 95° East 499 574 31,500 1,020 Climbing Minneapolis Center
09:08PM 45.1675 -90.4561 95° East 499 574 32,500 780 Climbing Minneapolis Center
09:09PM 45.1542 -90.2611 95° East 500 575 33,200 780 Climbing Minneapolis Center
09:10PM 45.1392 -90.0286 95° East 497 572 34,200 840 Climbing Minneapolis Center
09:11PM 45.1244 -89.8369 96° East 494 568 35,000 360 Climbing Minneapolis Center
09:12PM 45.1114 -89.6433 95° East 496 571 35,000  Level Minneapolis Center
09:13PM 45.0972 -89.4497 96° East 497 572 35,000  Level Minneapolis Center
09:14PM 45.0828 -89.2569 96° East 497 572 35,000  Level Minneapolis Center
09:16PM 45.0642 -89.0239 96° East 498 573 35,000  Level Minneapolis Center
09:17PM 45.0497 -88.8278 96° East 503 579 35,000  Level Minneapolis Center
09:18PM 45.0342 -88.6331 96° East 504 580 35,000  Level Minneapolis Center
09:19PM 45.0175 -88.4367 97° East 503 579 35,000 -60 Level Minneapolis Center
09:20PM 45.0003 -88.2236 96° East 504 580 34,900  Descending Minneapolis Center
09:21PM 44.9831 -88.0278 97° East 504 580 35,000  Climbing Minneapolis Center
09:22PM 44.9625 -87.7911 97° East 507 583 35,000  Level Minneapolis Center
09:23PM 44.9447 -87.5936 97° East 508 585 35,000  Level Minneapolis Center
09:24PM 44.9217 -87.3519 98° East 517 595 35,000  Level Minneapolis Center
09:25PM 44.9033 -87.1506 97° East 518 596 35,000  Level Minneapolis Center
09:26PM 44.8839 -86.9475 98° East 523 602 35,000  Level Minneapolis Center
09:27PM 44.8658 -86.7658 98° East 523 602 35,000  Level Minneapolis Center
09:28PM 44.8408 -86.5178 98° East 530 610 35,000  Level Minneapolis Center
09:29PM 44.8194 -86.3133 98° East 529 609 35,000  Level Minneapolis Center
09:30PM 44.7958 -86.0681 98° East 528 608 35,000  Level Minneapolis Center
09:31PM 44.7736 -85.8622 99° East 530 610 35,000  Level Minneapolis Center
09:32PM 44.7511 -85.6569 99° East 531 611 35,000  Level Minneapolis Center
09:34PM 44.7264 -85.4189 98° East 522 601 35,000  Level Minneapolis Center
09:35PM 44.7039 -85.2178 99° East 522 601 35,000  Level Minneapolis Center
09:36PM 44.6819 -85.0175 99° East 521 600 35,000  Level Minneapolis Center
09:37PM 44.6586 -84.8178 99° East 521 600 35,000  Level Minneapolis Center
09:38PM 44.6356 -84.6192 99° East 518 596 35,000  Level Minneapolis Center
09:39PM 44.6078 -84.3806 99° East 517 595 35,000  Level Minneapolis Center
09:40PM 44.5833 -84.1839 100° East 515 593 35,000  Level Minneapolis Center
09:41PM 44.5603 -83.9850 99° East 517 595 35,000  Level Minneapolis Center
09:42PM 44.5347 -83.7850 100° East 520 598 35,000  Level Minneapolis Center
09:43PM 44.5047 -83.5461 100° East 520 598 35,000  Level Minneapolis Center
09:44PM 44.4794 -83.3486 100° East 518 596 35,000  Level Minneapolis Center
09:45PM 44.4492 -83.1122 100° East 517 595 35,000  Level Minneapolis Center
09:46PM 44.4183 -82.8767 100° East 514 592 35,000  Level Minneapolis Center
09:47PM 44.3942 -82.6783 100° East 518 596 35,000  Level Minneapolis Center
09:48PM 44.4125 -82.4750 83° East 523 602 35,000  Level Minneapolis Center
09:49PM 44.4222 -82.2706 86° East 526 605 35,000  Level Minneapolis Center
09:50PM 44.4375 -82.0656 84° East 530 610 35,000  Level Minneapolis Center
09:52PM 44.4333 -81.7833 91° East 530 610 35,000  Level Toronto Center
09:53PM 44.4500 -81.5667 84° East 540 621 35,000  Level Toronto Center
09:54PM 44.4167 -81.3833 104° East 530 610 35,000  Level Toronto Center
09:55PM 44.3833 -81.2000 104° East 520 598 35,000  Level Toronto Center
09:56PM 44.3333 -80.9833 108° East 520 598 35,000  Level Toronto Center
09:57PM 44.3167 -80.8000 97° East 510 587 35,000  Level Toronto Center
09:58PM 44.2833 -80.6167 104° East 520 598 35,000  Level Toronto Center
09:59PM 44.2333 -80.4000 108° East 520 598 35,000  Level Toronto Center
10:00PM 44.2000 -80.2167 104° East 520 598 35,000  Level Toronto Center
10:01PM 44.1667 -80.0000 102° East 520 598 35,000  Level Toronto Center
10:02PM 44.1167 -79.8167 111° Southeast 530 610 35,000  Level Toronto Center
10:03PM 44.0833 -79.6333 104° East 530 610 35,000  Level Toronto Center
10:04PM 44.0500 -79.4167 102° East 530 610 35,000  Level Toronto Center
10:05PM 44.0000 -79.2333 111° Southeast 530 610 35,000  Level Toronto Center
10:06PM 43.9667 -79.0333 103° East 530 610 35,000  Level Toronto Center
10:07PM 43.9333 -78.8500 104° East 530 610 35,000  Level Toronto Center
10:08PM 43.8833 -78.6333 108° East 530 610 35,000  Level Toronto Center
10:09PM 43.8333 -78.4500 111° Southeast 530 610 35,000  Level Toronto Center
10:10PM 43.8000 -78.2500 103° East 520 598 35,000  Level Toronto Center
10:11PM 43.7500 -78.0667 111° Southeast 520 598 35,000  Level Toronto Center
10:12PM 43.7167 -77.8833 104° East 520 598 35,000  Level Toronto Center
10:13PM 43.6667 -77.6667 108° East 530 610 35,000 -300 Level Toronto Center
10:14PM 43.6333 -77.4833 104° East 530 610 34,500 -720 Descending Toronto Center
10:15PM 43.5833 -77.2833 109° East 530 610 33,600 -780 Descending Toronto Center
10:16PM 43.5333 -77.1000 111° Southeast 520 598 33,000 -300 Descending Toronto Center
10:17PM 43.4967 -76.8572 102° East 532 612 33,000  Level Boston Center
10:18PM 43.4539 -76.6653 107° East 524 603 33,000  Level Boston Center
10:19PM 43.4142 -76.4936 108° East 529 609 33,000  Level Boston Center
10:20PM 43.3686 -76.3050 108° East 529 609 33,000  Level Boston Center
10:21PM 43.3231 -76.1136 108° East 524 603 33,000 -360 Level Boston Center
10:22PM 43.2789 -75.9225 108° East 524 603 32,300 -1,680 Descending Boston Center
10:23PM 43.2322 -75.7375 109° East 524 603 29,600 -2,700 Descending Boston Center
10:24PM 43.1875 -75.5500 108° East 524 603 26,900 -2,640 Descending Boston Center
10:25PM 43.1442 -75.3769 109° East 503 579 24,400 -2,520 Descending Boston Center
10:26PM 43.1047 -75.2072 108° East 483 556 22,000 -2,400 Descending Boston Center
10:27PM 43.0647 -75.0461 109° East 459 528 19,700 -2,280 Descending Boston Center
10:28PM 43.0264 -74.8942 109° East 437 503 17,500 -2,460 Descending Boston Center
10:29PM 42.9942 -74.7339 105° East 413 475 14,800 -2,760 Descending Boston Center
10:30PM 42.9847 -74.5858 95° East 394 453 12,000 -1,920 Descending Boston Center
10:31PM 42.9747 -74.4464 96° East 380 437 11,000 -1,380 Descending Boston Center
10:32PM 42.9642 -74.3242 97° East 338 389 9,300 -1,620 Descending Boston Center
10:33PM 42.9578 -74.2103 94° East 312 359 7,800 -1,560 Descending Boston Center
10:34PM 42.9486 -74.1164 98° East 287 330 6,300 -1,500 Descending Boston Center
10:35PM 42.9397 -74.0086 96° East 271 312 4,800 -1,440 Descending Boston Center
10:36PM 42.9383 -73.9658 93° East 232 267 4,100 -1,500 Descending Boston Center
10:37PM 42.9142 -73.8917 114° Southeast 210 242 2,500 -1,140 Descending Boston Center
10:38PM 42.8817 -73.8286 125° Southeast 205 236 1,900 -480 Descending Boston Center
10:39PM 42.8297 -73.8131 168° South 164 189 1,600 -480 Descending Boston Center
10:39PM 42.7986 -73.8097 176° South 120 138 1,000 22,380 Descending Boston Center
10:40PM 42.7850 -73.7272 103° East 209 241 33,000  Climbing Boston Center
10:40PM 42.7611 -73.8089 248° West 132 152 1,000  Descending Boston Center
10:41PM 42.7481 -73.6783 98° East 209 241 33,000 1,740 Climbing Boston Center
10:42PM 42.7047 -73.8047 245° Southwest 192 221 3,000 -18,420 Descending Boston Center
10:43PM 42.6658 -73.7531 136° Southeast 242 278 3,000  Level Boston Center
10:44PM 42.6917 -73.6886 61° Northeast 229 264 3,000 -120 Level Boston Center
10:45PM 42.7497 -73.7067 347° North 216 249 2,800 -720 Descending Boston Center
10:46PM 42.8100 -73.7306 344° North 193 222 1,600 -600 Descending Boston Center
10:47PM 42.8197 -73.7789 285° West 153 176 1,500 -360 Descending Boston Center
10:48PM 42.7944 -73.8094 222° Southwest 128 147 900 -660 Descending Boston Center
10:49PM 42.7589 -73.8058 176° South 131 151 300 -600 Descending Boston Center